createdAt,value
2023-05-18T00:02:08.066Z,43.40
2023-05-18T00:04:35.713Z,43.50
2023-05-18T00:07:04.705Z,43.70
2023-05-18T00:09:34.596Z,43.70
2023-05-18T00:12:01.559Z,43.60
2023-05-18T00:14:28.755Z,43.40
2023-05-18T00:16:55.503Z,43.90
2023-05-18T00:19:24.288Z,43.80
2023-05-18T00:21:52.571Z,43.70
2023-05-18T00:24:19.483Z,43.50
2023-05-18T00:26:47.196Z,44.00
2023-05-18T00:29:13.958Z,43.80
2023-05-18T00:31:40.973Z,43.60
2023-05-18T00:34:11.977Z,44.20
2023-05-18T00:36:39.354Z,43.80
2023-05-18T00:39:07.152Z,44.00
2023-05-18T00:41:33.971Z,44.10
2023-05-18T00:44:01.036Z,44.00
2023-05-18T00:46:28.940Z,43.80
2023-05-18T00:48:57.416Z,44.10
2023-05-18T00:51:24.843Z,43.90
2023-05-18T00:53:53.793Z,43.90
2023-05-18T00:56:23.562Z,43.70
2023-05-18T00:58:52.324Z,43.70
2023-05-18T01:01:19.465Z,43.60
2023-05-18T01:03:46.862Z,43.60
2023-05-18T01:06:18.432Z,43.90
2023-05-18T01:08:45.218Z,43.90
2023-05-18T01:11:16.722Z,43.90
2023-05-18T01:13:55.262Z,43.90
2023-05-18T01:16:28.275Z,43.80
2023-05-18T01:19:01.791Z,43.70
2023-05-18T01:21:46.297Z,43.70
2023-05-18T01:24:21.575Z,43.80
2023-05-18T01:26:50.574Z,44.20
2023-05-18T01:29:18.238Z,44.30
2023-05-18T01:31:45.906Z,44.20
2023-05-18T01:34:12.670Z,44.40
2023-05-18T01:36:39.433Z,43.90
2023-05-18T01:39:06.248Z,43.70
2023-05-18T01:41:37.492Z,44.00
2023-05-18T01:44:39.490Z,44.00
2023-05-18T01:47:12.408Z,44.30
2023-05-18T01:49:54.804Z,44.90
2023-05-18T01:52:43.038Z,44.00
2023-05-18T01:55:10.744Z,44.40
2023-05-18T01:57:39.794Z,44.20
2023-05-18T02:00:09.122Z,44.40
2023-05-18T02:02:46.539Z,44.50
2023-05-18T02:05:16.210Z,44.10
2023-05-18T02:07:47.414Z,44.30
2023-05-18T02:10:14.823Z,44.50
2023-05-18T02:12:41.843Z,44.10
2023-05-18T02:15:09.845Z,44.40
2023-05-18T02:17:40.016Z,44.70
2023-05-18T02:20:07.843Z,44.30
2023-05-18T02:22:35.422Z,44.30
2023-05-18T02:25:02.962Z,44.50
2023-05-18T02:27:30.321Z,45.00
2023-05-18T02:29:57.984Z,44.40
2023-05-18T02:32:24.750Z,44.40
2023-05-18T02:34:54.824Z,44.40
2023-05-18T02:37:23.182Z,44.40
2023-05-18T02:39:50.424Z,44.10
2023-05-18T02:42:17.198Z,44.50
2023-05-18T02:44:43.974Z,44.50
2023-05-18T02:47:14.234Z,44.30
2023-05-18T02:49:41.171Z,44.30
2023-05-18T02:52:07.960Z,44.30
2023-05-18T02:54:34.763Z,44.30
2023-05-18T02:57:02.984Z,44.50
2023-05-18T02:59:43.943Z,44.40
2023-05-18T03:02:14.337Z,44.30
2023-05-18T03:04:41.848Z,44.30
2023-05-18T03:07:10.518Z,44.40
2023-05-18T03:09:37.978Z,44.30
2023-05-18T03:12:05.622Z,44.70
2023-05-18T03:14:32.655Z,44.40
2023-05-18T03:17:00.497Z,44.70
2023-05-18T03:19:27.979Z,44.60
2023-05-18T03:21:54.829Z,44.90
2023-05-18T03:24:21.785Z,44.60
2023-05-18T03:26:49.942Z,44.40
2023-05-18T03:29:16.830Z,44.40
2023-05-18T03:31:43.995Z,44.60
2023-05-18T03:34:12.383Z,44.60
2023-05-18T03:36:40.024Z,44.60
2023-05-18T03:39:06.910Z,44.40
2023-05-18T03:41:34.475Z,44.50
2023-05-18T03:44:02.346Z,44.70
2023-05-18T03:46:30.509Z,44.60
2023-05-18T03:48:57.962Z,44.70
2023-05-18T03:51:31.970Z,44.70
2023-05-18T03:54:00.154Z,44.80
2023-05-18T03:56:26.970Z,44.60
2023-05-18T03:58:53.731Z,44.60
2023-05-18T04:01:23.727Z,44.70
2023-05-18T04:03:51.476Z,44.40
2023-05-18T04:06:22.546Z,44.60
2023-05-18T04:08:50.236Z,44.90
2023-05-18T04:11:17.599Z,45.00
2023-05-18T04:13:44.490Z,44.80
2023-05-18T04:16:13.442Z,44.90
2023-05-18T04:18:42.054Z,44.80
2023-05-18T04:21:09.728Z,44.90
2023-05-18T04:23:39.459Z,45.00
2023-05-18T04:26:07.217Z,44.90
2023-05-18T04:28:34.088Z,44.80
2023-05-18T04:31:01.869Z,44.60
2023-05-18T04:33:32.709Z,44.60
2023-05-18T04:36:04.877Z,45.00
2023-05-18T04:38:35.817Z,44.90
2023-05-18T04:41:07.249Z,44.80
2023-05-18T04:43:34.440Z,44.50
2023-05-18T04:46:01.728Z,44.60
2023-05-18T04:48:29.375Z,44.60
2023-05-18T04:50:56.159Z,44.80
2023-05-18T04:53:22.928Z,44.70
2023-05-18T04:55:50.396Z,44.40
2023-05-18T04:58:17.243Z,44.70
2023-05-18T05:00:44.269Z,44.50
2023-05-18T05:03:11.242Z,44.70
2023-05-18T05:05:38.140Z,44.50
2023-05-18T05:08:06.620Z,44.40
2023-05-18T05:10:33.479Z,44.40
2023-05-18T05:13:00.335Z,44.50
2023-05-18T05:15:27.312Z,44.20
2023-05-18T05:17:54.465Z,44.30
2023-05-18T05:20:21.290Z,44.20
2023-05-18T05:22:48.167Z,44.30
2023-05-18T05:25:21.293Z,44.20
2023-05-18T05:27:48.072Z,44.20
2023-05-18T05:30:18.414Z,44.20
2023-05-18T05:32:45.328Z,44.20
2023-05-18T05:35:12.802Z,44.30
2023-05-18T05:37:41.181Z,44.20
2023-05-18T05:40:09.962Z,44.10
2023-05-18T05:42:45.628Z,44.30
2023-05-18T05:45:13.096Z,44.00
2023-05-18T05:47:46.063Z,44.10
2023-05-18T05:50:13.921Z,44.10
2023-05-18T05:52:41.553Z,44.20
2023-05-18T05:55:09.529Z,44.50
2023-05-18T05:57:36.531Z,44.90
2023-05-18T06:00:04.859Z,44.70
2023-05-18T06:02:48.200Z,44.60
2023-05-18T06:05:18.921Z,44.50
2023-05-18T06:07:46.274Z,44.40
2023-05-18T06:10:13.112Z,44.40
2023-05-18T06:12:39.906Z,44.40
2023-05-18T06:15:07.563Z,44.30
2023-05-18T06:17:35.876Z,44.30
2023-05-18T06:20:02.714Z,44.30
2023-05-18T06:22:30.194Z,44.30
2023-05-18T06:25:15.715Z,44.20
2023-05-18T06:28:01.172Z,44.30
2023-05-18T06:30:49.603Z,44.30
2023-05-18T06:33:23.508Z,44.30
2023-05-18T06:35:50.420Z,44.40
2023-05-18T06:38:17.953Z,44.40
2023-05-18T06:40:45.649Z,44.40
2023-05-18T06:43:12.477Z,44.50
2023-05-18T06:45:56.400Z,44.40
2023-05-18T06:48:34.245Z,44.40
2023-05-18T06:51:01.028Z,45.10
2023-05-18T06:53:27.956Z,44.60
2023-05-18T06:55:55.696Z,44.50
2023-05-18T06:58:23.056Z,44.70
2023-05-18T07:00:51.229Z,44.70
2023-05-18T07:03:18.625Z,44.80
2023-05-18T07:05:45.549Z,44.80
2023-05-18T07:08:12.483Z,44.80
2023-05-18T07:10:39.378Z,44.80
2023-05-18T07:13:06.505Z,44.90
2023-05-18T07:15:34.488Z,44.90
2023-05-18T07:18:01.566Z,44.80
2023-05-18T07:20:28.445Z,44.80
2023-05-18T07:22:55.939Z,44.90
2023-05-18T07:25:23.501Z,44.90
2023-05-18T07:27:52.134Z,44.80
2023-05-18T07:30:18.976Z,44.80
2023-05-18T07:32:45.835Z,44.80
2023-05-18T07:35:13.104Z,45.00
2023-05-18T07:37:40.050Z,45.40
2023-05-18T07:40:09.778Z,45.50
2023-05-18T07:42:37.731Z,45.60
2023-05-18T07:45:04.880Z,45.60
2023-05-18T07:47:31.626Z,45.60
2023-05-18T07:49:58.443Z,45.60
2023-05-18T07:52:25.637Z,45.50
2023-05-18T07:54:54.913Z,45.50
2023-05-18T07:57:21.592Z,45.50
2023-05-18T07:59:48.362Z,45.50
2023-05-18T08:02:16.643Z,45.60
2023-05-18T08:04:43.534Z,45.60
2023-05-18T08:07:10.719Z,45.50
2023-05-18T08:09:37.512Z,45.40
2023-05-18T08:12:04.919Z,45.30
2023-05-18T08:14:31.735Z,45.20
2023-05-18T08:16:58.636Z,45.00
2023-05-18T08:19:25.948Z,44.90
2023-05-18T08:21:52.752Z,44.80
2023-05-18T08:24:19.483Z,44.70
2023-05-18T08:26:46.228Z,44.40
2023-05-18T08:29:12.972Z,44.10
2023-05-18T08:31:40.658Z,42.40
2023-05-18T08:34:08.113Z,41.60
2023-05-18T08:36:36.061Z,40.90
2023-05-18T08:39:04.022Z,40.80
2023-05-18T08:41:32.782Z,40.60
2023-05-18T08:44:04.795Z,40.60
2023-05-18T08:46:36.025Z,41.10
2023-05-18T08:49:05.344Z,40.40
2023-05-18T08:51:35.652Z,40.40
2023-05-18T08:54:03.751Z,40.10
2023-05-18T08:56:33.450Z,40.10
2023-05-18T08:59:04.812Z,39.70
2023-05-18T09:01:32.429Z,39.30
2023-05-18T09:04:03.658Z,39.60
2023-05-18T09:06:30.499Z,39.20
2023-05-18T09:08:58.349Z,39.40
2023-05-18T09:11:27.112Z,39.30
2023-05-18T09:13:54.952Z,39.20
2023-05-18T09:16:21.766Z,39.10
2023-05-18T09:18:48.597Z,39.40
2023-05-18T09:21:15.604Z,39.60
2023-05-18T09:23:43.462Z,39.80
2023-05-18T09:26:11.219Z,40.40
2023-05-18T09:28:43.338Z,39.90
2023-05-18T09:31:17.158Z,39.60
2023-05-18T09:33:45.055Z,39.40
2023-05-18T09:36:12.259Z,39.20
2023-05-18T09:38:43.233Z,39.40
2023-05-18T09:41:11.307Z,39.00
2023-05-18T09:43:38.510Z,39.10
2023-05-18T09:46:09.017Z,38.90
2023-05-18T09:48:37.121Z,38.70
2023-05-18T09:51:07.485Z,38.80
2023-05-18T09:53:40.059Z,39.00
2023-05-18T09:56:11.776Z,39.40
2023-05-18T09:58:39.757Z,39.80
2023-05-18T10:01:06.624Z,40.30
2023-05-18T10:03:37.621Z,40.40
2023-05-18T10:06:06.240Z,40.80
2023-05-18T10:08:34.229Z,40.70
2023-05-18T10:11:01.394Z,40.90
2023-05-18T10:13:31.573Z,40.90
2023-05-18T10:16:01.326Z,40.90
2023-05-18T10:18:34.399Z,41.00
2023-05-18T10:21:03.287Z,41.10
2023-05-18T10:23:35.592Z,41.60
2023-05-18T10:26:05.608Z,40.90
2023-05-18T10:28:43.448Z,41.00
2023-05-18T10:31:10.708Z,41.00
2023-05-18T10:33:38.701Z,41.10
2023-05-18T10:36:06.369Z,41.10
2023-05-18T10:38:34.535Z,41.20
2023-05-18T10:41:01.651Z,41.30
2023-05-18T10:43:28.822Z,41.30
2023-05-18T10:46:00.440Z,41.30
2023-05-18T10:48:29.075Z,41.40
2023-05-18T10:50:57.514Z,41.30
2023-05-18T10:53:29.854Z,41.30
2023-05-18T10:55:56.678Z,41.30
2023-05-18T10:58:27.081Z,41.20
2023-05-18T11:01:01.980Z,41.30
2023-05-18T11:03:29.098Z,41.30
2023-05-18T11:06:06.859Z,41.20
2023-05-18T11:08:34.263Z,41.10
2023-05-18T11:11:07.460Z,41.20
2023-05-18T11:13:35.736Z,41.10
2023-05-18T11:16:05.380Z,41.20
2023-05-18T11:18:45.352Z,41.10
2023-05-18T11:21:24.229Z,41.00
2023-05-18T11:24:09.831Z,41.10
2023-05-18T11:26:44.430Z,41.10
2023-05-18T11:29:24.441Z,41.30
2023-05-18T11:31:53.528Z,41.20
2023-05-18T11:34:40.936Z,41.30
2023-05-18T11:37:09.993Z,40.90
2023-05-18T11:39:44.773Z,41.10
2023-05-18T11:42:19.325Z,41.20
2023-05-18T11:44:56.192Z,41.10
2023-05-18T11:47:29.479Z,41.10
2023-05-18T11:49:57.600Z,41.00
2023-05-18T11:52:25.809Z,40.90
2023-05-18T11:54:54.974Z,41.00
2023-05-18T11:57:42.835Z,40.90
2023-05-18T12:00:12.138Z,40.80
2023-05-18T12:02:46.452Z,40.90
2023-05-18T12:05:14.747Z,40.60
2023-05-18T12:07:42.313Z,40.70
2023-05-18T12:10:11.785Z,40.50
2023-05-18T12:12:39.760Z,40.40
2023-05-18T12:15:08.516Z,40.40
2023-05-18T12:17:42.931Z,40.20
2023-05-18T12:20:18.207Z,40.00
2023-05-18T12:22:53.152Z,40.00
2023-05-18T12:25:21.592Z,39.90
2023-05-18T12:27:48.685Z,39.80
2023-05-18T12:30:15.393Z,39.70
2023-05-18T12:32:52.949Z,39.70
2023-05-18T12:35:27.483Z,39.40
2023-05-18T12:38:03.886Z,39.40
2023-05-18T12:40:44.169Z,39.50
2023-05-18T12:43:11.118Z,39.40
2023-05-18T12:45:38.053Z,39.40
2023-05-18T12:48:09.567Z,39.40
2023-05-18T12:50:38.701Z,39.30
2023-05-18T12:53:05.617Z,39.30
2023-05-18T12:55:33.337Z,39.30
2023-05-18T12:58:16.428Z,39.20
2023-05-18T13:00:45.053Z,39.00
2023-05-18T13:03:22.236Z,39.10
2023-05-18T13:06:03.734Z,38.90
2023-05-18T13:08:31.990Z,39.40
2023-05-18T13:11:13.475Z,38.80
2023-05-18T13:14:06.937Z,38.70
2023-05-18T13:16:35.183Z,38.50
2023-05-18T13:19:04.532Z,38.60
2023-05-18T13:21:31.432Z,38.50
2023-05-18T13:23:58.231Z,38.30
2023-05-18T13:26:25.352Z,38.30
2023-05-18T13:28:54.538Z,38.10
2023-05-18T13:31:22.314Z,38.00
2023-05-18T13:33:49.639Z,37.80
2023-05-18T13:36:17.182Z,37.90
2023-05-18T13:38:44.182Z,37.70
2023-05-18T13:41:15.375Z,37.50
2023-05-18T13:43:42.883Z,37.40
2023-05-18T13:46:10.130Z,37.30
2023-05-18T13:48:37.000Z,37.30
2023-05-18T13:51:04.008Z,37.20
2023-05-18T13:53:31.069Z,37.30
2023-05-18T13:55:57.796Z,37.20
2023-05-18T13:58:24.531Z,37.20
2023-05-18T14:00:53.857Z,37.20
2023-05-18T14:03:20.823Z,37.10
2023-05-18T14:05:47.719Z,37.20
2023-05-18T14:08:14.580Z,37.10
2023-05-18T14:10:41.625Z,37.20
2023-05-18T14:13:09.240Z,37.30
2023-05-18T14:15:36.253Z,37.40
2023-05-18T14:18:03.036Z,37.50
2023-05-18T14:20:30.471Z,37.50
2023-05-18T14:22:57.710Z,35.50
2023-05-18T14:25:24.485Z,34.50
2023-05-18T14:27:51.309Z,34.10
2023-05-18T14:30:18.249Z,31.80
2023-05-18T14:32:45.085Z,33.60
2023-05-18T14:35:11.900Z,32.40
2023-05-18T14:37:38.685Z,31.80
2023-05-18T14:40:06.794Z,33.30
2023-05-18T14:42:33.703Z,30.20
2023-05-18T14:45:00.517Z,31.30
2023-05-18T14:47:27.332Z,31.10
2023-05-18T14:49:54.327Z,31.90
2023-05-18T14:52:21.111Z,30.80
2023-05-18T14:54:47.885Z,31.40
2023-05-18T14:57:14.643Z,31.80
2023-05-18T14:59:43.415Z,32.20
2023-05-18T15:02:10.269Z,32.30
2023-05-18T15:04:37.103Z,31.30
2023-05-18T15:07:04.636Z,30.90
2023-05-18T15:09:31.504Z,31.70
2023-05-18T15:11:58.315Z,31.90
2023-05-18T15:14:25.653Z,31.60
2023-05-18T15:16:52.456Z,32.10
2023-05-18T15:19:19.295Z,31.60
2023-05-18T15:21:46.329Z,32.00
2023-05-18T15:24:13.067Z,32.20
2023-05-18T15:26:39.963Z,33.50
2023-05-18T15:29:06.703Z,32.80
2023-05-18T15:31:33.848Z,32.90
2023-05-18T15:34:00.676Z,34.00
2023-05-18T15:36:27.490Z,33.10
2023-05-18T15:38:54.303Z,32.30
2023-05-18T15:41:22.029Z,33.70
2023-05-18T15:43:48.833Z,33.20
2023-05-18T15:46:15.655Z,33.40
2023-05-18T15:48:42.414Z,33.90
2023-05-18T15:51:09.348Z,33.40
2023-05-18T15:53:36.157Z,32.30
2023-05-18T15:56:02.987Z,32.80
2023-05-18T15:58:30.114Z,33.00
2023-05-18T16:00:57.111Z,33.30
2023-05-18T16:03:24.083Z,33.40
2023-05-18T16:05:51.003Z,33.80
2023-05-18T16:08:17.823Z,34.00
2023-05-18T16:10:44.616Z,34.00
2023-05-18T16:13:11.484Z,34.20
2023-05-18T16:15:38.291Z,34.40
2023-05-18T16:18:05.629Z,34.50
2023-05-18T16:20:32.554Z,34.70
2023-05-18T16:22:59.706Z,34.90
2023-05-18T16:25:26.634Z,34.90
2023-05-18T16:27:53.586Z,35.10
2023-05-18T16:30:20.518Z,35.20
2023-05-18T16:32:47.400Z,35.20
2023-05-18T16:35:14.226Z,35.20
2023-05-18T16:37:41.082Z,35.30
2023-05-18T16:40:08.481Z,35.30
2023-05-18T16:42:35.489Z,35.40
2023-05-18T16:45:02.533Z,35.40
2023-05-18T16:47:32.198Z,35.50
2023-05-18T16:49:59.572Z,35.50
2023-05-18T16:52:26.431Z,35.60
2023-05-18T16:54:53.208Z,35.60
2023-05-18T16:57:20.088Z,35.70
2023-05-18T16:59:46.986Z,35.70
2023-05-18T17:02:14.244Z,35.70
2023-05-18T17:04:41.418Z,35.90
2023-05-18T17:07:09.916Z,35.80
2023-05-18T17:09:40.040Z,36.00
2023-05-18T17:12:07.723Z,36.00
2023-05-18T17:14:34.527Z,36.00
2023-05-18T17:17:01.413Z,36.10
2023-05-18T17:19:28.213Z,36.10
2023-05-18T17:21:55.056Z,36.20
2023-05-18T17:24:22.032Z,36.30
2023-05-18T17:26:49.166Z,36.30
2023-05-18T17:29:17.949Z,36.40
2023-05-18T17:31:46.078Z,36.40
2023-05-18T17:34:12.868Z,36.50
2023-05-18T17:36:39.781Z,36.60
2023-05-18T17:39:06.585Z,36.50
2023-05-18T17:41:33.645Z,36.60
2023-05-18T17:44:00.794Z,36.60
2023-05-18T17:46:27.612Z,36.70
2023-05-18T17:48:54.501Z,36.80
2023-05-18T17:51:23.665Z,36.80
2023-05-18T17:53:51.137Z,37.30
2023-05-18T17:56:17.904Z,37.00
2023-05-18T17:58:44.726Z,37.00
2023-05-18T18:01:12.182Z,37.00
2023-05-18T18:03:39.329Z,37.10
2023-05-18T18:06:06.831Z,37.20
2023-05-18T18:08:33.829Z,37.30
2023-05-18T18:11:00.815Z,37.40
2023-05-18T18:13:27.706Z,37.40
2023-05-18T18:15:54.640Z,37.40
2023-05-18T18:18:22.097Z,37.50
2023-05-18T18:20:48.936Z,37.70
2023-05-18T18:23:15.760Z,37.70
2023-05-18T18:25:43.952Z,37.90
2023-05-18T18:28:14.939Z,37.90
2023-05-18T18:30:45.003Z,38.00
2023-05-18T18:33:12.141Z,38.10
2023-05-18T18:35:39.034Z,38.40
2023-05-18T18:38:06.121Z,38.40
2023-05-18T18:40:34.680Z,38.60
2023-05-18T18:43:01.656Z,38.80
2023-05-18T18:45:30.833Z,39.60
2023-05-18T18:47:58.421Z,39.20
2023-05-18T18:50:26.109Z,39.20
2023-05-18T18:52:52.972Z,39.20
2023-05-18T18:55:20.095Z,39.40
2023-05-18T18:57:47.092Z,39.50
2023-05-18T19:00:20.027Z,39.50
2023-05-18T19:02:47.116Z,39.70
2023-05-18T19:05:14.062Z,39.60
2023-05-18T19:07:40.971Z,39.90
2023-05-18T19:10:08.706Z,39.80
2023-05-18T19:12:35.452Z,40.00
2023-05-18T19:15:02.219Z,40.10
2023-05-18T19:17:29.104Z,39.90
2023-05-18T19:19:58.453Z,40.20
2023-05-18T19:22:25.242Z,40.30
2023-05-18T19:24:51.978Z,40.20
2023-05-18T19:27:18.724Z,40.40
2023-05-18T19:29:45.523Z,40.30
2023-05-18T19:32:12.337Z,40.50
2023-05-18T19:34:39.260Z,40.60
2023-05-18T19:37:06.044Z,40.60
2023-05-18T19:39:32.787Z,40.50
2023-05-18T19:41:59.634Z,40.80
2023-05-18T19:44:26.735Z,40.60
2023-05-18T19:46:53.594Z,40.80
2023-05-18T19:49:20.814Z,40.80
2023-05-18T19:51:48.259Z,41.00
2023-05-18T19:54:15.104Z,41.10
2023-05-18T19:56:41.904Z,41.20
2023-05-18T19:59:08.737Z,40.90
2023-05-18T20:01:35.704Z,41.10
2023-05-18T20:04:02.613Z,41.20
2023-05-18T20:06:31.605Z,41.10
2023-05-18T20:08:58.508Z,41.10
2023-05-18T20:11:25.938Z,42.00
2023-05-18T20:13:52.705Z,41.10
2023-05-18T20:16:19.546Z,41.40
2023-05-18T20:18:46.743Z,41.50
2023-05-18T20:21:13.718Z,41.30
2023-05-18T20:23:52.759Z,41.40
2023-05-18T20:26:19.533Z,41.10
2023-05-18T20:28:46.312Z,40.50
2023-05-18T20:31:13.188Z,40.90
2023-05-18T20:33:40.164Z,41.00
2023-05-18T20:36:08.873Z,41.10
2023-05-18T20:38:35.637Z,41.30
2023-05-18T20:41:02.394Z,41.10
2023-05-18T20:43:29.226Z,41.30
2023-05-18T20:45:56.080Z,41.20
2023-05-18T20:48:26.729Z,41.30
2023-05-18T20:50:53.570Z,41.30
2023-05-18T20:53:20.516Z,41.30
2023-05-18T20:55:47.711Z,41.40
2023-05-18T20:58:18.366Z,41.30
2023-05-18T21:00:46.603Z,41.30
2023-05-18T21:03:14.445Z,41.70
2023-05-18T21:05:41.434Z,41.70
2023-05-18T21:08:08.333Z,41.60
2023-05-18T21:10:35.471Z,41.50
2023-05-18T21:13:02.634Z,42.00
2023-05-18T21:15:30.046Z,41.90
2023-05-18T21:17:57.002Z,42.20
2023-05-18T21:20:23.835Z,42.10
2023-05-18T21:22:51.322Z,42.40
2023-05-18T21:25:19.578Z,42.20
2023-05-18T21:27:46.357Z,42.40
2023-05-18T21:30:13.772Z,42.70
2023-05-18T21:32:40.970Z,42.50
2023-05-18T21:35:07.947Z,42.60
2023-05-18T21:37:34.735Z,42.80
2023-05-18T21:40:01.519Z,42.70
2023-05-18T21:42:28.333Z,42.70
2023-05-18T21:44:55.403Z,42.60
2023-05-18T21:47:22.271Z,42.80
2023-05-18T21:49:49.156Z,42.70
2023-05-18T21:52:16.047Z,42.60
2023-05-18T21:54:42.881Z,42.70
2023-05-18T21:57:09.763Z,42.70
2023-05-18T21:59:36.631Z,43.00
2023-05-18T22:02:03.449Z,42.80
2023-05-18T22:04:30.253Z,42.80
2023-05-18T22:06:57.190Z,42.70
2023-05-18T22:09:24.011Z,42.60
2023-05-18T22:11:50.776Z,42.70
2023-05-18T22:14:18.131Z,42.70
2023-05-18T22:16:45.238Z,42.80
2023-05-18T22:19:12.243Z,42.80
2023-05-18T22:21:39.071Z,42.80
2023-05-18T22:24:06.310Z,42.70
2023-05-18T22:26:33.096Z,42.90
2023-05-18T22:29:00.044Z,43.00
2023-05-18T22:31:27.864Z,42.70
2023-05-18T22:33:55.580Z,43.00
2023-05-18T22:36:22.485Z,43.00
2023-05-18T22:38:49.756Z,43.20
2023-05-18T22:41:18.704Z,43.10
2023-05-18T22:43:45.520Z,43.00
2023-05-18T22:46:15.120Z,43.20
2023-05-18T22:48:42.712Z,42.80
2023-05-18T22:51:09.790Z,43.40
2023-05-18T22:53:36.738Z,43.10
2023-05-18T22:56:05.513Z,43.00
2023-05-18T22:58:32.343Z,43.30
2023-05-18T23:00:59.111Z,43.20
2023-05-18T23:03:26.022Z,43.20
2023-05-18T23:05:52.845Z,43.70
2023-05-18T23:08:20.384Z,43.40
2023-05-18T23:10:48.294Z,43.20
2023-05-18T23:13:16.156Z,43.50
2023-05-18T23:15:43.250Z,43.50
2023-05-18T23:18:10.160Z,43.40
2023-05-18T23:20:38.575Z,43.40
2023-05-18T23:23:05.458Z,43.30
2023-05-18T23:25:32.330Z,43.30
2023-05-18T23:27:59.203Z,43.60
2023-05-18T23:30:26.111Z,43.40
2023-05-18T23:32:53.291Z,43.40
2023-05-18T23:35:20.785Z,43.30
2023-05-18T23:37:50.019Z,43.30
2023-05-18T23:40:18.418Z,43.40
2023-05-18T23:42:45.892Z,43.60
2023-05-18T23:45:13.419Z,43.30
2023-05-18T23:47:40.688Z,43.30
2023-05-18T23:50:08.320Z,43.90
2023-05-18T23:52:35.704Z,44.20
2023-05-18T23:55:04.196Z,44.20
2023-05-18T23:57:31.632Z,44.30
2023-05-18T23:59:58.944Z,44.30
